Portada
METAR-TAF:

METAR-TAF

Aeroports :

Galápagos, Equador

latitud: 00-54S, longitud: 089-36W, altitud: 6 m

Observació

L'informe es va fer fa 26 minuts, a les 14:00 UTC
Vent 3 kt del Est/Sud-Est
Temperatura 24°C
Humitat 94%
Pressió 1011 hPa
Visibilitat 10 km o més
Núvols disperses a una alçada de 1000 ft

METAR: SEST 231400Z 11003KT 9999 SCT010 24/23 Q1011 RMK A2985

Hora: 08:26 (14:26 UTC)


TAF: manca

Observacions i pronòstics meteorològics de més de 4000 aeroports (METAR i TAF).

Les estacions disponibles són els punts grocs i vermells al mapa.

Posi el ratolí al punt desitjat per veure el nom de l'estació.

Feu clic per veure les observacions i els pronòstics meteorològics.

Per canviar el mapa: feu clic els botons verds amb una creu de color negre per apropar; al botó verd amb un guió per allunyar la imatge; o en les fletxes verdes per a mapes adjacents.


METAR-TAF: